createdAt,value
2018-11-26T00:00:15.593Z,2.80
2018-11-26T00:01:19.184Z,2.83
2018-11-26T00:02:22.594Z,3.40
2018-11-26T00:03:25.997Z,3.30
2018-11-26T00:04:29.412Z,3.17
2018-11-26T00:05:32.839Z,2.90
2018-11-26T00:06:36.257Z,3.33
2018-11-26T00:07:39.698Z,3.57
2018-11-26T00:08:43.088Z,3.00
2018-11-26T00:09:46.583Z,2.60
2018-11-26T00:11:59.409Z,3.23
2018-11-26T00:13:02.977Z,3.03
2018-11-26T00:14:06.489Z,2.73
2018-11-26T00:15:09.930Z,2.60
2018-11-26T00:16:13.303Z,3.43
2018-11-26T00:17:16.724Z,2.90
2018-11-26T00:18:20.142Z,3.00
2018-11-26T00:19:23.613Z,3.10
2018-11-26T00:20:27.051Z,2.70
2018-11-26T00:21:30.449Z,2.90
2018-11-26T00:22:33.885Z,2.63
2018-11-26T00:23:37.436Z,2.67
2018-11-26T00:24:40.857Z,4.00
2018-11-26T00:25:44.349Z,3.07
2018-11-26T00:26:47.797Z,2.60
2018-11-26T00:27:51.178Z,2.60
2018-11-26T00:28:54.701Z,2.93
2018-11-26T00:29:58.129Z,2.70
2018-11-26T00:31:01.628Z,2.80
2018-11-26T00:32:05.022Z,2.80
2018-11-26T00:33:08.444Z,2.70
2018-11-26T00:34:11.864Z,2.60
2018-11-26T00:35:15.328Z,2.90
2018-11-26T00:36:18.768Z,3.10
2018-11-26T00:37:22.208Z,2.60
2018-11-26T00:38:25.617Z,3.17
2018-11-26T00:39:29.143Z,2.70
2018-11-26T00:40:32.603Z,2.70
2018-11-26T00:41:36.023Z,2.50
2018-11-26T00:42:39.541Z,3.00
2018-11-26T00:43:42.959Z,2.70
2018-11-26T00:44:46.373Z,2.33
2018-11-26T00:45:49.837Z,3.07
2018-11-26T00:46:53.260Z,2.60
2018-11-26T00:47:56.837Z,2.50
2018-11-26T00:49:00.235Z,2.43
2018-11-26T00:50:03.740Z,2.57
2018-11-26T00:51:07.728Z,2.73
2018-11-26T00:52:11.140Z,2.60
2018-11-26T00:53:15.023Z,2.60
2018-11-26T00:54:18.640Z,2.57
2018-11-26T00:55:22.108Z,2.70
2018-11-26T00:56:25.534Z,2.73
2018-11-26T00:57:28.964Z,2.77
2018-11-26T00:58:32.419Z,2.50
2018-11-26T00:59:35.825Z,2.30
2018-11-26T01:00:39.278Z,2.77
2018-11-26T01:01:42.827Z,2.27
2018-11-26T01:02:46.401Z,2.30
2018-11-26T01:03:49.825Z,2.77
2018-11-26T01:04:53.198Z,2.37
2018-11-26T01:05:56.712Z,2.50
2018-11-26T01:07:00.143Z,2.67
2018-11-26T01:08:03.861Z,2.40
2018-11-26T01:09:08.546Z,2.80
2018-11-26T01:10:11.965Z,2.67
2018-11-26T01:11:15.605Z,2.97
2018-11-26T01:12:19.006Z,2.60
2018-11-26T01:13:22.428Z,2.40
2018-11-26T01:14:25.948Z,2.30
2018-11-26T01:15:29.475Z,2.13
2018-11-26T01:16:32.949Z,2.43
2018-11-26T01:17:36.345Z,2.57
2018-11-26T01:18:39.756Z,2.30
2018-11-26T01:19:43.176Z,2.03
2018-11-26T01:20:46.615Z,2.80
2018-11-26T01:21:50.049Z,2.60
2018-11-26T01:22:53.455Z,2.40
2018-11-26T01:23:56.837Z,2.07
2018-11-26T01:25:00.251Z,2.40
2018-11-26T01:26:03.785Z,2.50
2018-11-26T01:27:07.280Z,2.20
2018-11-26T01:28:10.667Z,2.73
2018-11-26T01:29:14.054Z,2.33
2018-11-26T01:30:17.549Z,2.10
2018-11-26T01:31:21.129Z,2.40
2018-11-26T01:32:24.522Z,2.67
2018-11-26T01:33:27.955Z,2.30
2018-11-26T01:34:31.633Z,2.30
2018-11-26T01:35:35.245Z,2.33
2018-11-26T01:36:38.637Z,2.20
2018-11-26T01:37:42.092Z,2.57
2018-11-26T01:38:45.476Z,2.30
2018-11-26T01:39:48.882Z,2.83
2018-11-26T01:40:52.875Z,2.20
2018-11-26T01:41:56.289Z,2.30
2018-11-26T01:42:59.739Z,2.20
2018-11-26T01:44:03.217Z,2.50
2018-11-26T01:45:07.093Z,2.50
2018-11-26T01:46:10.541Z,2.30
2018-11-26T01:47:14.039Z,2.50
2018-11-26T01:48:17.537Z,2.40
2018-11-26T01:49:20.983Z,2.00
2018-11-26T01:50:24.385Z,2.20
2018-11-26T01:51:27.784Z,2.30
2018-11-26T01:52:31.301Z,2.17
2018-11-26T01:53:34.682Z,2.40
2018-11-26T01:54:38.120Z,2.97
2018-11-26T01:55:41.595Z,2.40
2018-11-26T01:56:45.063Z,2.00
2018-11-26T01:57:48.881Z,2.60
2018-11-26T01:58:52.331Z,1.97
2018-11-26T01:59:55.745Z,2.20
2018-11-26T02:00:59.336Z,2.27
2018-11-26T02:02:02.829Z,2.10
2018-11-26T02:03:06.723Z,2.07
2018-11-26T02:04:10.300Z,2.30
2018-11-26T02:05:13.776Z,1.90
2018-11-26T02:06:17.249Z,2.10
2018-11-26T02:07:20.736Z,2.30
2018-11-26T02:08:24.135Z,2.20
2018-11-26T02:09:27.583Z,2.30
2018-11-26T02:10:31.085Z,2.30
2018-11-26T02:11:34.594Z,2.03
2018-11-26T02:12:38.042Z,2.27
2018-11-26T02:13:41.427Z,2.37
2018-11-26T02:14:44.877Z,2.10
2018-11-26T02:15:48.266Z,2.70
2018-11-26T02:16:51.711Z,2.43
2018-11-26T02:17:55.252Z,2.33
2018-11-26T02:18:58.725Z,2.30
2018-11-26T02:20:02.129Z,2.40
2018-11-26T02:21:05.821Z,1.83
2018-11-26T02:22:09.389Z,2.03
2018-11-26T02:23:12.955Z,1.97
2018-11-26T02:24:16.388Z,1.77
2018-11-26T02:25:19.824Z,2.10
2018-11-26T02:26:23.309Z,1.90
2018-11-26T02:27:26.683Z,1.87
2018-11-26T02:28:30.125Z,2.00
2018-11-26T02:29:33.813Z,1.70
2018-11-26T02:30:37.428Z,1.90
2018-11-26T02:31:40.834Z,2.23
2018-11-26T02:32:44.282Z,2.00
2018-11-26T02:33:47.800Z,2.10
2018-11-26T02:34:51.233Z,1.90
2018-11-26T02:35:54.664Z,2.50
2018-11-26T02:36:58.174Z,1.93
2018-11-26T02:38:01.616Z,2.17
2018-11-26T02:39:06.156Z,2.13
2018-11-26T02:40:13.361Z,2.23
2018-11-26T02:41:16.863Z,2.30
2018-11-26T02:42:20.451Z,2.07
2018-11-26T02:43:23.861Z,2.03
2018-11-26T02:44:27.302Z,2.23
2018-11-26T02:45:30.875Z,2.40
2018-11-26T02:46:34.345Z,2.30
2018-11-26T02:47:37.781Z,2.17
2018-11-26T02:48:41.244Z,1.90
2018-11-26T02:49:44.774Z,2.10
2018-11-26T02:50:48.257Z,2.40
2018-11-26T02:51:51.679Z,1.70
2018-11-26T02:52:55.119Z,1.77
2018-11-26T02:53:58.544Z,1.90
2018-11-26T02:55:02.024Z,2.30
2018-11-26T02:56:05.757Z,2.20
2018-11-26T02:57:09.187Z,1.80
2018-11-26T02:58:12.601Z,2.37
2018-11-26T02:59:16.057Z,2.00
2018-11-26T03:00:19.701Z,2.00
2018-11-26T03:01:23.385Z,2.23
2018-11-26T03:02:26.857Z,2.10
2018-11-26T03:03:30.314Z,1.93
2018-11-26T03:04:33.731Z,1.90
2018-11-26T03:05:37.144Z,1.80
2018-11-26T03:06:40.612Z,2.10
2018-11-26T03:07:44.029Z,1.90
2018-11-26T03:08:47.794Z,1.80
2018-11-26T03:09:51.236Z,1.90
2018-11-26T03:10:54.788Z,2.23
2018-11-26T03:11:58.216Z,2.20
2018-11-26T03:13:01.712Z,1.90
2018-11-26T03:14:05.127Z,1.67
2018-11-26T03:15:11.394Z,1.43
2018-11-26T03:16:14.918Z,2.03
2018-11-26T03:17:18.408Z,2.10
2018-11-26T03:18:21.897Z,2.20
2018-11-26T03:19:25.329Z,1.70
2018-11-26T03:20:28.744Z,2.30
2018-11-26T03:21:32.312Z,1.70
2018-11-26T03:22:35.765Z,2.20
2018-11-26T03:23:39.729Z,1.60
2018-11-26T03:24:43.173Z,1.90
2018-11-26T03:25:46.646Z,2.00
2018-11-26T03:26:50.127Z,1.97
2018-11-26T03:27:53.573Z,1.80
2018-11-26T03:28:57.037Z,1.93
2018-11-26T03:30:00.629Z,1.90
2018-11-26T03:31:04.583Z,2.20
2018-11-26T03:32:08.043Z,1.60
2018-11-26T03:33:11.670Z,1.87
2018-11-26T03:34:15.165Z,1.90
2018-11-26T03:35:18.895Z,1.80
2018-11-26T03:36:22.310Z,1.80
2018-11-26T03:37:25.733Z,1.60
2018-11-26T03:39:01.257Z,1.40
2018-11-26T03:40:08.969Z,1.90
2018-11-26T03:41:12.401Z,1.70
2018-11-26T03:42:16.615Z,1.57
2018-11-26T03:43:20.303Z,1.77
2018-11-26T03:44:23.744Z,1.70
2018-11-26T03:45:27.354Z,1.80
2018-11-26T03:46:30.762Z,1.53
2018-11-26T03:47:34.207Z,1.57
2018-11-26T03:48:37.713Z,1.80
2018-11-26T03:49:41.279Z,1.97
2018-11-26T03:50:44.658Z,2.40
2018-11-26T03:51:48.064Z,1.60
2018-11-26T03:52:51.491Z,1.70
2018-11-26T03:53:55.109Z,1.90
2018-11-26T03:54:58.555Z,1.87
2018-11-26T03:56:01.962Z,1.90
2018-11-26T03:57:05.795Z,1.93
2018-11-26T03:58:09.308Z,1.80
2018-11-26T03:59:12.737Z,1.80
2018-11-26T04:00:17.236Z,1.40
2018-11-26T04:01:20.645Z,1.80
2018-11-26T04:02:24.050Z,1.43
2018-11-26T04:03:27.529Z,1.67
2018-11-26T04:04:30.927Z,1.73
2018-11-26T04:05:34.367Z,1.50
2018-11-26T04:06:37.824Z,1.90
2018-11-26T04:07:41.607Z,1.50
2018-11-26T04:08:45.091Z,1.77
2018-11-26T04:09:48.626Z,1.73
2018-11-26T04:10:52.037Z,1.60
2018-11-26T04:11:55.439Z,1.60
2018-11-26T04:12:58.908Z,1.70
2018-11-26T04:14:02.326Z,2.00
2018-11-26T04:15:06.911Z,1.67
2018-11-26T04:16:10.436Z,1.73
2018-11-26T04:17:13.879Z,1.77
2018-11-26T04:18:17.300Z,1.67
2018-11-26T04:19:20.780Z,1.50
2018-11-26T04:20:24.466Z,1.77
2018-11-26T04:21:27.891Z,1.90
2018-11-26T04:22:31.302Z,1.80
2018-11-26T04:23:34.889Z,1.90
2018-11-26T04:24:38.326Z,1.70
2018-11-26T04:25:41.806Z,1.70
2018-11-26T04:26:45.428Z,1.90
2018-11-26T04:27:48.880Z,1.80
2018-11-26T04:28:52.381Z,1.60
2018-11-26T04:29:55.793Z,1.80
2018-11-26T04:30:59.245Z,1.87
2018-11-26T04:32:02.976Z,1.77
2018-11-26T04:33:06.625Z,1.40
2018-11-26T04:34:10.095Z,1.27
2018-11-26T04:35:13.553Z,1.60
2018-11-26T04:36:16.969Z,1.33
2018-11-26T04:37:20.397Z,1.40
2018-11-26T04:38:24.137Z,1.43
2018-11-26T04:39:27.547Z,1.40
2018-11-26T04:40:30.952Z,1.87
2018-11-26T04:41:34.446Z,1.50
2018-11-26T04:42:38.252Z,1.63
2018-11-26T04:43:41.747Z,1.50
2018-11-26T04:44:45.364Z,1.80
2018-11-26T04:45:48.869Z,1.53
2018-11-26T04:46:53.955Z,1.50
2018-11-26T04:47:57.422Z,1.60
2018-11-26T04:49:00.853Z,1.57
2018-11-26T04:50:04.841Z,1.83
2018-11-26T04:51:08.264Z,1.43
2018-11-26T04:52:11.780Z,1.63
2018-11-26T04:53:15.197Z,1.50
2018-11-26T04:54:19.037Z,2.10
2018-11-26T04:55:22.435Z,1.57
2018-11-26T04:56:25.912Z,1.60
2018-11-26T04:57:29.290Z,1.40
2018-11-26T04:58:32.716Z,1.50
2018-11-26T04:59:36.086Z,1.30
2018-11-26T05:00:39.575Z,1.90
2018-11-26T05:01:43.129Z,1.53
2018-11-26T05:02:46.551Z,1.50
2018-11-26T05:03:49.990Z,1.27
2018-11-26T05:04:53.424Z,1.33
2018-11-26T05:05:56.950Z,1.47
2018-11-26T05:07:00.349Z,1.40
2018-11-26T05:08:03.904Z,1.70
2018-11-26T05:09:09.576Z,1.50
2018-11-26T05:10:14.477Z,1.50
2018-11-26T05:11:17.981Z,1.67
2018-11-26T05:12:21.401Z,1.30
2018-11-26T05:13:24.765Z,1.40
2018-11-26T05:14:28.169Z,1.63
2018-11-26T05:15:31.592Z,1.30
2018-11-26T05:16:34.980Z,1.40
2018-11-26T05:17:38.363Z,1.17
2018-11-26T05:18:41.818Z,1.70
2018-11-26T05:19:44.252Z,1.60
2018-11-26T05:20:47.726Z,1.57
2018-11-26T05:21:51.143Z,1.23
2018-11-26T05:22:54.553Z,1.73
2018-11-26T05:23:57.984Z,1.70
2018-11-26T05:25:01.429Z,1.50
2018-11-26T05:26:05.223Z,1.50
2018-11-26T05:27:08.614Z,1.57
2018-11-26T05:28:12.032Z,1.47
2018-11-26T05:29:15.460Z,1.23
2018-11-26T05:30:19.066Z,1.47
2018-11-26T05:31:22.458Z,1.47
2018-11-26T05:32:25.848Z,1.27
2018-11-26T05:33:29.240Z,1.50
2018-11-26T05:34:32.675Z,1.30
2018-11-26T05:35:36.231Z,1.50
2018-11-26T05:36:39.788Z,1.60
2018-11-26T05:37:43.248Z,1.43
2018-11-26T05:38:47.337Z,1.63
2018-11-26T05:39:50.800Z,1.80
2018-11-26T05:40:54.244Z,1.47
2018-11-26T05:41:57.680Z,1.50
2018-11-26T05:43:01.085Z,1.23
2018-11-26T05:44:04.606Z,1.40
2018-11-26T05:45:15.865Z,1.60
2018-11-26T05:46:19.400Z,1.50
2018-11-26T05:47:22.817Z,1.63
2018-11-26T05:48:26.225Z,1.40
2018-11-26T05:49:29.649Z,2.50
2018-11-26T05:50:33.148Z,2.80
2018-11-26T05:51:36.564Z,2.10
2018-11-26T05:52:40.584Z,1.97
2018-11-26T05:53:44.059Z,2.37
2018-11-26T05:54:47.470Z,1.50
2018-11-26T05:55:50.831Z,2.20
2018-11-26T05:56:54.370Z,2.00
2018-11-26T05:57:57.774Z,2.07
2018-11-26T05:59:01.294Z,1.90
2018-11-26T06:00:06.403Z,2.50
2018-11-26T06:01:09.859Z,2.50
2018-11-26T06:02:13.274Z,2.97
2018-11-26T06:03:17.192Z,2.40
2018-11-26T06:04:20.820Z,2.50
2018-11-26T06:05:24.269Z,1.80
2018-11-26T06:06:27.683Z,2.90
2018-11-26T06:07:31.129Z,2.27
2018-11-26T06:08:34.568Z,2.53
2018-11-26T06:09:38.009Z,2.10
2018-11-26T06:10:41.640Z,2.40
2018-11-26T06:11:45.045Z,2.40
2018-11-26T06:12:48.551Z,2.60
2018-11-26T06:13:52.023Z,2.30
2018-11-26T06:14:55.424Z,2.17
2018-11-26T06:15:58.840Z,2.13
2018-11-26T06:17:02.251Z,1.83
2018-11-26T06:18:05.959Z,1.70
2018-11-26T06:19:09.361Z,2.43
2018-11-26T06:20:13.533Z,2.10
2018-11-26T06:21:16.956Z,2.13
2018-11-26T06:22:20.400Z,2.00
2018-11-26T06:23:23.927Z,2.00
2018-11-26T06:24:27.311Z,1.90
2018-11-26T06:25:30.727Z,1.87
2018-11-26T06:26:34.157Z,1.97
2018-11-26T06:27:37.575Z,2.10
2018-11-26T06:28:41.035Z,2.13
2018-11-26T06:29:44.479Z,1.57
2018-11-26T06:30:47.869Z,2.20
2018-11-26T06:31:51.280Z,1.80
2018-11-26T06:32:54.688Z,2.13
2018-11-26T06:33:58.117Z,1.70
2018-11-26T06:35:01.500Z,2.30
2018-11-26T06:36:05.308Z,1.80
2018-11-26T06:37:08.772Z,2.13
2018-11-26T06:38:12.202Z,2.30
2018-11-26T06:39:15.905Z,2.10
2018-11-26T06:40:19.436Z,1.90
2018-11-26T06:41:22.948Z,1.57
2018-11-26T06:42:26.339Z,2.00
2018-11-26T06:43:29.797Z,2.00
2018-11-26T06:44:33.196Z,2.17
2018-11-26T06:45:36.604Z,1.87
2018-11-26T06:46:39.991Z,1.70
2018-11-26T06:47:43.458Z,1.90
2018-11-26T06:48:47.057Z,1.80
2018-11-26T06:49:50.454Z,2.10
2018-11-26T06:50:54.025Z,1.60
2018-11-26T06:51:57.386Z,2.20
2018-11-26T06:53:00.790Z,1.63
2018-11-26T06:54:04.452Z,2.27
2018-11-26T06:55:09.986Z,3.13
2018-11-26T06:56:13.447Z,3.37
2018-11-26T06:57:17.040Z,2.43
2018-11-26T06:58:20.657Z,2.57
2018-11-26T06:59:24.083Z,2.57
2018-11-26T07:00:27.650Z,2.50
2018-11-26T07:01:31.134Z,2.63
2018-11-26T07:02:34.707Z,2.20
2018-11-26T07:03:38.149Z,2.77
2018-11-26T07:04:41.613Z,2.80
2018-11-26T07:05:45.064Z,2.47
2018-11-26T07:06:48.492Z,2.00
2018-11-26T07:07:52.069Z,2.77
2018-11-26T07:08:55.518Z,2.30
2018-11-26T07:09:58.927Z,2.33
2018-11-26T07:11:02.345Z,2.40
2018-11-26T07:12:06.257Z,2.70
2018-11-26T07:13:09.742Z,2.13
2018-11-26T07:14:13.133Z,2.53
2018-11-26T07:15:18.207Z,3.00
2018-11-26T07:16:21.741Z,3.23
2018-11-26T07:17:25.126Z,3.40
2018-11-26T07:18:28.567Z,3.40
2018-11-26T07:19:31.923Z,3.00
2018-11-26T07:20:35.378Z,3.37
2018-11-26T07:21:38.769Z,3.87
2018-11-26T07:22:42.275Z,3.10
2018-11-26T07:23:45.726Z,3.53
2018-11-26T07:24:49.121Z,3.27
2018-11-26T07:25:52.553Z,4.33
2018-11-26T07:26:55.994Z,3.60
2018-11-26T07:27:59.405Z,3.70
2018-11-26T07:29:02.853Z,4.50
2018-11-26T07:30:10.702Z,3.80
2018-11-26T07:31:14.109Z,3.53
2018-11-26T07:32:17.537Z,4.30
2018-11-26T07:33:21.074Z,4.30
2018-11-26T07:34:24.470Z,4.53
2018-11-26T07:35:27.870Z,4.43
2018-11-26T07:36:31.332Z,4.13
2018-11-26T07:37:34.741Z,4.27
2018-11-26T07:38:38.161Z,4.30
2018-11-26T07:39:41.586Z,4.13
2018-11-26T07:40:45.012Z,4.00
2018-11-26T07:41:48.584Z,4.30
2018-11-26T07:43:02.859Z,4.73
2018-11-26T07:44:08.990Z,4.33
2018-11-26T07:45:13.571Z,5.40
2018-11-26T07:46:17.035Z,4.83
2018-11-26T07:47:20.532Z,4.30
2018-11-26T07:48:23.996Z,4.57
2018-11-26T07:49:27.396Z,4.73
2018-11-26T07:50:30.788Z,4.80
2018-11-26T07:51:34.200Z,4.90
2018-11-26T07:52:37.701Z,4.80
2018-11-26T07:53:41.109Z,4.53
2018-11-26T07:54:44.505Z,4.83
2018-11-26T07:55:48.033Z,4.73
2018-11-26T07:56:51.600Z,4.30
2018-11-26T07:57:55.008Z,5.10
2018-11-26T07:58:58.453Z,4.40
2018-11-26T08:00:01.839Z,4.70
2018-11-26T08:01:06.066Z,4.53
2018-11-26T08:02:09.455Z,4.60
2018-11-26T08:03:12.909Z,5.00
2018-11-26T08:04:16.329Z,4.67
2018-11-26T08:05:21.039Z,4.87
2018-11-26T08:06:24.467Z,4.90
2018-11-26T08:07:27.862Z,3.97
2018-11-26T08:08:31.341Z,5.07
2018-11-26T08:09:34.755Z,4.77
2018-11-26T08:10:38.172Z,4.70
2018-11-26T08:11:41.604Z,5.07
2018-11-26T08:12:46.052Z,4.60
2018-11-26T08:13:49.481Z,4.30
2018-11-26T08:14:52.893Z,4.80
2018-11-26T08:15:56.314Z,4.97
2018-11-26T08:16:59.695Z,5.67
2018-11-26T08:18:03.136Z,5.50
2018-11-26T08:19:06.625Z,5.10
2018-11-26T08:20:10.645Z,4.40
2018-11-26T08:21:14.064Z,4.87
2018-11-26T08:22:17.713Z,4.63
2018-11-26T08:23:21.257Z,5.03
2018-11-26T08:24:24.691Z,4.80
2018-11-26T08:25:28.090Z,5.30
2018-11-26T08:26:31.499Z,5.47
2018-11-26T08:27:34.973Z,4.93
2018-11-26T08:28:38.408Z,5.17
2018-11-26T08:29:41.829Z,4.73
2018-11-26T08:30:45.256Z,4.50
2018-11-26T08:31:48.840Z,5.37
2018-11-26T08:32:53.632Z,4.80
2018-11-26T08:33:57.068Z,5.23
2018-11-26T08:35:00.484Z,5.03
2018-11-26T08:36:09.218Z,5.23
2018-11-26T08:37:18.113Z,5.20
2018-11-26T08:38:24.567Z,5.63
2018-11-26T08:39:33.125Z,5.13
2018-11-26T08:40:41.913Z,5.70
2018-11-26T08:41:50.761Z,5.20
2018-11-26T08:43:12.008Z,5.40
2018-11-26T08:44:19.613Z,5.67
2018-11-26T08:45:28.453Z,4.77
2018-11-26T08:46:31.887Z,4.87
2018-11-26T08:47:40.456Z,5.57
2018-11-26T08:48:53.107Z,4.90
2018-11-26T08:49:56.503Z,5.30
2018-11-26T08:51:02.183Z,5.20
2018-11-26T08:52:05.629Z,5.70
2018-11-26T08:53:09.177Z,5.60
2018-11-26T08:54:12.591Z,5.87
2018-11-26T08:55:16.099Z,5.80
2018-11-26T08:56:19.663Z,5.73
2018-11-26T08:57:23.151Z,5.20
2018-11-26T08:58:26.590Z,5.20
2018-11-26T08:59:29.999Z,5.50
2018-11-26T09:00:33.430Z,5.47
2018-11-26T09:02:10.054Z,4.83
2018-11-26T09:03:18.968Z,5.40
2018-11-26T09:04:27.833Z,5.20
2018-11-26T09:05:40.998Z,5.07
2018-11-26T09:06:44.735Z,5.87
2018-11-26T09:07:48.369Z,5.03
2018-11-26T09:08:51.846Z,5.90
2018-11-26T09:09:55.290Z,5.17
2018-11-26T09:10:59.062Z,5.93
2018-11-26T09:12:02.539Z,5.33
2018-11-26T09:13:05.981Z,5.87
2018-11-26T09:14:09.379Z,5.10
2018-11-26T09:15:12.816Z,6.17
2018-11-26T09:16:16.337Z,4.73
2018-11-26T09:17:20.013Z,5.43
2018-11-26T09:18:23.625Z,4.90
2018-11-26T09:19:27.161Z,4.90
2018-11-26T09:20:30.621Z,5.83
2018-11-26T09:21:34.109Z,4.93
2018-11-26T09:22:37.570Z,4.70
2018-11-26T09:23:40.995Z,5.60
2018-11-26T09:24:44.393Z,6.30
2018-11-26T09:25:47.844Z,5.80
2018-11-26T09:26:51.306Z,5.73
2018-11-26T09:27:54.769Z,5.37
2018-11-26T09:28:58.170Z,5.53
2018-11-26T09:30:01.587Z,5.70
2018-11-26T09:31:05.455Z,5.60
2018-11-26T09:32:08.897Z,5.60
2018-11-26T09:33:12.591Z,5.07
2018-11-26T09:34:16.000Z,5.53
2018-11-26T09:35:19.440Z,6.10
2018-11-26T09:36:22.868Z,5.07
2018-11-26T09:37:26.360Z,5.50
2018-11-26T09:38:29.802Z,5.90
2018-11-26T09:39:33.206Z,5.77
2018-11-26T09:40:36.618Z,5.20
2018-11-26T09:41:40.498Z,5.20
2018-11-26T09:42:44.002Z,5.70
2018-11-26T09:43:47.524Z,5.73
2018-11-26T09:44:50.985Z,5.27
2018-11-26T09:45:54.593Z,5.37
2018-11-26T09:46:58.057Z,5.80
2018-11-26T09:48:01.508Z,5.43
2018-11-26T09:49:05.044Z,5.70
2018-11-26T09:50:15.475Z,5.60
2018-11-26T09:51:18.943Z,5.70
2018-11-26T09:52:22.363Z,5.37
2018-11-26T09:53:25.763Z,6.10
2018-11-26T09:54:29.185Z,5.60
2018-11-26T09:55:32.602Z,5.20
2018-11-26T09:56:36.013Z,5.30
2018-11-26T09:57:39.558Z,6.17
2018-11-26T09:58:43.023Z,5.70
2018-11-26T09:59:46.465Z,5.20
2018-11-26T10:00:49.894Z,5.77
2018-11-26T10:01:53.391Z,5.30
2018-11-26T10:02:56.800Z,5.77
2018-11-26T10:04:00.214Z,5.10
2018-11-26T10:05:04.167Z,6.10
2018-11-26T10:06:07.590Z,5.90
2018-11-26T10:07:11.021Z,5.33
2018-11-26T10:08:14.403Z,5.40
2018-11-26T10:09:17.837Z,5.23
2018-11-26T10:10:21.331Z,5.23
2018-11-26T10:11:24.796Z,6.03
2018-11-26T10:12:28.201Z,5.80
2018-11-26T10:13:31.618Z,5.07
2018-11-26T10:14:35.090Z,5.90
2018-11-26T10:15:38.481Z,5.60
2018-11-26T10:16:41.892Z,6.00
2018-11-26T10:17:45.369Z,5.60
2018-11-26T10:18:48.808Z,5.43
2018-11-26T10:19:52.280Z,5.70
2018-11-26T10:20:55.701Z,5.57
2018-11-26T10:21:59.082Z,6.10
2018-11-26T10:23:02.561Z,4.90
2018-11-26T10:24:06.188Z,5.50
2018-11-26T10:25:12.266Z,5.23
2018-11-26T10:26:15.727Z,5.13
2018-11-26T10:27:19.141Z,5.70
2018-11-26T10:28:22.576Z,5.20
2018-11-26T10:29:26.007Z,5.47
2018-11-26T10:30:29.533Z,5.57
2018-11-26T10:31:32.993Z,5.40
2018-11-26T10:32:36.353Z,5.23
2018-11-26T10:33:39.801Z,5.70
2018-11-26T10:34:43.287Z,5.80
2018-11-26T10:35:46.788Z,5.27
2018-11-26T10:36:50.489Z,5.60
2018-11-26T10:37:53.931Z,5.37
2018-11-26T10:38:57.364Z,6.07
2018-11-26T10:40:00.790Z,5.60
2018-11-26T10:41:04.237Z,5.50
2018-11-26T10:42:07.789Z,6.23
2018-11-26T10:43:11.684Z,5.80
2018-11-26T10:44:14.837Z,5.53
2018-11-26T10:45:19.585Z,5.30
2018-11-26T10:46:23.146Z,5.80
2018-11-26T10:47:26.592Z,5.30
2018-11-26T10:48:30.065Z,6.53
2018-11-26T10:49:33.476Z,5.40
2018-11-26T10:50:36.890Z,6.03
2018-11-26T10:51:40.382Z,5.60
2018-11-26T10:52:48.202Z,5.43
2018-11-26T10:53:51.743Z,6.00
2018-11-26T10:54:55.140Z,6.10
2018-11-26T10:55:58.611Z,5.20
2018-11-26T10:57:02.018Z,5.83
2018-11-26T10:58:06.260Z,6.07
2018-11-26T10:59:09.803Z,5.20
2018-11-26T11:00:20.419Z,5.90
2018-11-26T11:01:29.302Z,5.30
2018-11-26T11:02:37.982Z,5.70
2018-11-26T11:03:41.615Z,5.10
2018-11-26T11:04:47.679Z,5.67
2018-11-26T11:05:48.706Z,5.93
2018-11-26T11:06:55.860Z,5.43
2018-11-26T11:07:55.573Z,5.10
2018-11-26T11:08:59.023Z,5.57
2018-11-26T11:10:02.426Z,5.67
2018-11-26T11:11:06.018Z,5.90
2018-11-26T11:12:09.493Z,5.80
2018-11-26T11:13:13.009Z,6.10
2018-11-26T11:14:16.469Z,5.03
2018-11-26T11:15:19.980Z,5.50
2018-11-26T11:16:23.735Z,5.73
2018-11-26T11:17:27.234Z,5.17
2018-11-26T11:18:30.682Z,5.23
2018-11-26T11:19:34.138Z,4.80
2018-11-26T11:20:37.827Z,5.00
2018-11-26T11:21:41.272Z,5.70
2018-11-26T11:22:44.772Z,6.30
2018-11-26T11:23:48.298Z,5.77
2018-11-26T11:24:51.814Z,6.00
2018-11-26T11:25:55.618Z,5.00
2018-11-26T11:26:59.085Z,5.00
2018-11-26T11:28:02.546Z,6.00
2018-11-26T11:29:06.417Z,5.57
2018-11-26T11:30:20.682Z,5.80
2018-11-26T11:31:24.134Z,6.10
2018-11-26T11:32:27.544Z,5.20
2018-11-26T11:33:31.015Z,5.30
2018-11-26T11:34:34.563Z,5.77
2018-11-26T11:35:37.972Z,5.60
2018-11-26T11:36:41.470Z,5.87
2018-11-26T11:37:46.489Z,5.70
2018-11-26T11:38:49.950Z,5.90
2018-11-26T11:39:53.380Z,6.03
2018-11-26T11:40:56.884Z,6.03
2018-11-26T11:42:00.335Z,6.00
2018-11-26T11:43:03.843Z,5.90
2018-11-26T11:44:07.265Z,6.10
2018-11-26T11:45:11.845Z,6.57
2018-11-26T11:46:15.256Z,5.77
2018-11-26T11:47:19.308Z,5.80
2018-11-26T11:48:22.892Z,6.50
2018-11-26T11:49:27.151Z,6.70
2018-11-26T11:50:29.777Z,6.90
2018-11-26T11:51:33.251Z,7.03
2018-11-26T11:52:36.715Z,7.80
2018-11-26T11:53:40.104Z,6.27
2018-11-26T11:54:43.510Z,6.57
2018-11-26T11:55:47.120Z,7.00
2018-11-26T11:56:50.841Z,6.50
2018-11-26T11:57:54.428Z,6.83
2018-11-26T11:58:57.905Z,6.80
2018-11-26T12:00:01.358Z,7.43
2018-11-26T12:01:04.866Z,7.00
2018-11-26T12:02:16.034Z,7.10
2018-11-26T12:03:17.660Z,6.70
2018-11-26T12:04:21.095Z,6.50
2018-11-26T12:05:24.759Z,6.87
2018-11-26T12:06:28.275Z,6.40
2018-11-26T12:07:31.695Z,6.50
2018-11-26T12:08:35.096Z,6.20
2018-11-26T12:09:38.520Z,7.17
2018-11-26T12:10:42.038Z,6.50
2018-11-26T12:11:45.482Z,6.10
2018-11-26T12:12:48.964Z,6.57
2018-11-26T12:13:53.158Z,6.07
2018-11-26T12:14:56.625Z,6.10
2018-11-26T12:16:00.102Z,6.60
2018-11-26T12:17:03.524Z,6.63
2018-11-26T12:18:07.672Z,6.17
2018-11-26T12:19:11.101Z,5.97
2018-11-26T12:20:15.270Z,6.70
2018-11-26T12:21:18.697Z,6.20
2018-11-26T12:22:22.103Z,6.93
2018-11-26T12:23:25.639Z,5.60
2018-11-26T12:24:29.125Z,6.87
2018-11-26T12:25:32.534Z,6.63
2018-11-26T12:26:35.926Z,6.87
2018-11-26T12:27:39.365Z,7.00
2018-11-26T12:28:42.835Z,6.03
2018-11-26T12:29:46.265Z,6.47
2018-11-26T12:30:49.820Z,6.90
2018-11-26T12:31:53.404Z,6.27
2018-11-26T12:32:56.857Z,6.20
2018-11-26T12:34:00.264Z,6.70
2018-11-26T12:35:03.853Z,6.90
2018-11-26T12:36:07.985Z,6.13
2018-11-26T12:37:11.397Z,6.40
2018-11-26T12:38:14.849Z,6.27
2018-11-26T12:39:18.322Z,6.50
2018-11-26T12:40:23.982Z,6.40
2018-11-26T12:41:27.420Z,6.53
2018-11-26T12:42:30.883Z,6.90
2018-11-26T12:43:34.658Z,6.57
2018-11-26T12:44:55.966Z,6.60
2018-11-26T12:45:59.362Z,6.43
2018-11-26T12:47:02.820Z,6.80
2018-11-26T12:48:06.319Z,6.93
2018-11-26T12:49:09.774Z,6.53
2018-11-26T12:50:13.218Z,7.10
2018-11-26T12:51:16.764Z,6.87
2018-11-26T12:52:20.256Z,6.73
2018-11-26T12:53:23.724Z,6.60
2018-11-26T12:54:27.163Z,6.47
2018-11-26T12:55:30.694Z,6.40
2018-11-26T12:56:34.121Z,7.10
2018-11-26T12:57:38.333Z,7.27
2018-11-26T12:58:41.745Z,6.43
2018-11-26T12:59:45.304Z,6.20
2018-11-26T13:00:48.885Z,6.80
2018-11-26T13:01:52.628Z,6.60
2018-11-26T13:02:59.748Z,6.80
2018-11-26T13:04:04.219Z,6.80
2018-11-26T13:05:10.659Z,6.93
2018-11-26T13:06:14.165Z,6.20
2018-11-26T13:07:17.623Z,6.60
2018-11-26T13:08:21.362Z,6.17
2018-11-26T13:09:24.865Z,6.70
2018-11-26T13:10:28.267Z,6.70
2018-11-26T13:11:31.687Z,5.97
2018-11-26T13:12:35.120Z,6.93
2018-11-26T13:13:39.536Z,7.17
2018-11-26T13:14:43.491Z,6.43
2018-11-26T13:15:47.841Z,6.33
2018-11-26T13:16:51.388Z,6.90
2018-11-26T13:17:54.891Z,6.90
2018-11-26T13:18:58.358Z,5.60
2018-11-26T13:20:01.793Z,6.53
2018-11-26T13:21:05.551Z,6.77
2018-11-26T13:22:08.996Z,6.90
2018-11-26T13:23:12.444Z,6.47
2018-11-26T13:24:15.961Z,6.30
2018-11-26T13:25:21.621Z,6.10
2018-11-26T13:26:25.039Z,6.30
2018-11-26T13:27:28.461Z,6.50
2018-11-26T13:28:31.892Z,6.70
2018-11-26T13:29:35.477Z,6.60
2018-11-26T13:30:42.865Z,6.53
2018-11-26T13:31:46.292Z,6.20
2018-11-26T13:32:54.634Z,6.23
2018-11-26T13:33:58.091Z,5.93
2018-11-26T13:35:01.592Z,5.60
2018-11-26T13:36:05.088Z,5.90
2018-11-26T13:37:08.508Z,5.77
2018-11-26T13:38:12.013Z,5.63
2018-11-26T13:39:15.410Z,7.00
2018-11-26T13:40:19.489Z,6.97
2018-11-26T13:41:22.945Z,6.67
2018-11-26T13:42:26.475Z,6.30
2018-11-26T13:43:29.891Z,7.30
2018-11-26T13:44:33.594Z,6.00
2018-11-26T13:45:38.979Z,6.93
2018-11-26T13:46:42.386Z,5.83
2018-11-26T13:47:45.990Z,6.70
2018-11-26T13:48:49.661Z,6.50
2018-11-26T13:49:53.075Z,6.07
2018-11-26T13:50:57.369Z,6.90
2018-11-26T13:52:00.817Z,7.50
2018-11-26T13:53:04.336Z,7.03
2018-11-26T13:54:07.775Z,6.90
2018-11-26T13:55:12.353Z,6.57
2018-11-26T13:56:15.940Z,7.40
2018-11-26T13:57:19.390Z,7.10
2018-11-26T13:58:22.822Z,6.93
2018-11-26T13:59:26.301Z,7.90
2018-11-26T14:00:29.768Z,6.90
2018-11-26T14:01:33.359Z,7.33
2018-11-26T14:02:36.831Z,7.47
2018-11-26T14:03:40.393Z,6.80
2018-11-26T14:04:43.866Z,7.27
2018-11-26T14:05:47.401Z,7.20
2018-11-26T14:06:50.816Z,7.40
2018-11-26T14:07:54.287Z,6.87
2018-11-26T14:08:57.742Z,7.00
2018-11-26T14:10:01.203Z,7.17
2018-11-26T14:11:04.749Z,6.77